^^
Your Local Weather - Clay, NY Station Historical Data
Daily Summary for April 19, 2017 Units:  English    Metric   Both
« Previous Day
Next Day »
Daily Weekly Monthly Yearly Custom
  High: Low: Average:
Temperature: 55.4 °F 44.0 °F 50 °F
Dew Point: 48.0 °F 29.8 °F 41.1 °F
Humidity: 93% 53% 73%
Wind Speed: 10.0mph 0.0mph 3.6mph
Wind Gust: 17.0mph - -
Wind- - SE
Pressure: 30.28 in 30.02 in -
Precipitation: 0.61 in    
Historical Graphs
 
 
Tabular Data for April 19, 2017
Time Temperature Dew Point Pressure Wind Wind Speed Wind Gust Humidity Rainfall Rate (Hourly) solar
00:02 45.0 °F 29.8 °F 30.28 in Calm     55% 0.00 in 0 W/m2
00:08 45.0 °F 29.8 °F 30.28 in Calm     55% 0.00 in 0 W/m2
00:14 45.2 °F 30.9 °F 30.28 in Calm   3.0 mph 57% 0.00 in 0 W/m2
00:20 45.5 °F 31.6 °F 30.28 in SSE 1.0 mph 2.0 mph 58% 0.00 in 0 W/m2
00:26 45.8 °F 32.3 °F 30.28 in East 2.0 mph 3.0 mph 59% 0.00 in 0 W/m2
00:32 45.9 °F 31.9 °F 30.28 in ESE 2.0 mph 2.0 mph 58% 0.00 in 0 W/m2
00:38 45.8 °F 32.7 °F 30.28 in East 1.0 mph 2.0 mph 60% 0.00 in 0 W/m2
00:44 45.9 °F 32.8 °F 30.28 in ENE 1.0 mph 2.0 mph 60% 0.00 in 0 W/m2
00:50 46.0 °F 33.7 °F 30.28 in ENE 2.0 mph 2.0 mph 62% 0.00 in 0 W/m2
00:56 45.9 °F 32.8 °F 30.28 in East 2.0 mph 3.0 mph 60% 0.00 in 0 W/m2
01:02 46.1 °F 32.6 °F 30.28 in East 2.0 mph 2.0 mph 59% 0.00 in 0 W/m2
01:08 46.2 °F 32.2 °F 30.27 in ENE 2.0 mph 4.0 mph 58% 0.00 in 0 W/m2
01:20 46.0 °F 33.3 °F 30.27 in ESE 2.0 mph 2.0 mph 61% 0.00 in 0 W/m2
01:26 46.0 °F 33.3 °F 30.26 in ENE 1.0 mph 3.0 mph 61% 0.00 in 0 W/m2
01:32 45.9 °F 32.8 °F 30.26 in ENE 2.0 mph 2.0 mph 60% 0.00 in 0 W/m2
01:38 46.3 °F 32.7 °F 30.26 in ENE 2.0 mph 2.0 mph 59% 0.00 in 0 W/m2
01:44 46.2 °F 33.9 °F 30.26 in ENE 2.0 mph 4.0 mph 62% 0.00 in 0 W/m2
01:50 46.1 °F 34.6 °F 30.26 in ENE 2.0 mph 3.0 mph 64% 0.00 in 0 W/m2
01:56 45.7 °F 34.2 °F 30.26 in ENE 3.0 mph 3.0 mph 64% 0.00 in 0 W/m2
02:04 45.8 °F 33.5 °F 30.25 in ENE 3.0 mph 3.0 mph 62% 0.00 in 0 W/m2
02:10 45.9 °F 33.6 °F 30.26 in NE 3.0 mph 3.0 mph 62% 0.00 in 0 W/m2
02:16 46.0 °F 33.3 °F 30.26 in ENE 2.0 mph 3.0 mph 61% 0.00 in 0 W/m2
02:22 45.8 °F 33.9 °F 30.26 in ENE 2.0 mph 3.0 mph 63% 0.00 in 0 W/m2
02:28 45.9 °F 34.0 °F 30.25 in ENE 2.0 mph 4.0 mph 63% 0.00 in 0 W/m2
02:34 45.7 °F 33.8 °F 30.25 in ENE 2.0 mph 4.0 mph 63% 0.00 in 0 W/m2
02:40 45.4 °F 34.3 °F 30.25 in ENE 2.0 mph 3.0 mph 65% 0.00 in 0 W/m2
02:46 45.3 °F 34.6 °F 30.25 in ENE 2.0 mph 3.0 mph 66% 0.00 in 0 W/m2
02:52 45.4 °F 34.7 °F 30.25 in ENE 1.0 mph 2.0 mph 66% 0.00 in 0 W/m2
02:58 44.8 °F 35.6 °F 30.25 in ENE 1.0 mph 2.0 mph 70% 0.00 in 0 W/m2
03:04 44.7 °F 35.1 °F 30.25 in ENE 1.0 mph 2.0 mph 69% 0.00 in 0 W/m2
03:10 44.3 °F 35.5 °F 30.25 in ENE 1.0 mph 2.0 mph 71% 0.00 in 0 W/m2
03:16 44.0 °F 35.2 °F 30.25 in ENE 1.0 mph 2.0 mph 71% 0.00 in 0 W/m2
03:22 44.6 °F 35.4 °F 30.24 in ENE 1.0 mph 1.0 mph 70% 0.00 in 0 W/m2
03:28 45.2 °F 36.0 °F 30.24 in ENE 1.0 mph 1.0 mph 70% 0.00 in 0 W/m2
03:34 44.9 °F 36.1 °F 30.24 in Calm   1.0 mph 71% 0.00 in 0 W/m2
03:40 44.8 °F 36.0 °F 30.25 in Calm     71% 0.00 in 0 W/m2
03:46 45.2 °F 36.7 °F 30.24 in NE 1.0 mph 2.0 mph 72% 0.00 in 0 W/m2
03:52 45.2 °F 36.7 °F 30.24 in NE 1.0 mph 1.0 mph 72% 0.00 in 0 W/m2
03:58 45.0 °F 36.9 °F 30.24 in ENE 1.0 mph 2.0 mph 73% 0.00 in 0 W/m2
04:04 45.5 °F 37.3 °F 30.24 in ENE 1.0 mph 1.0 mph 73% 0.00 in 0 W/m2
04:10 45.7 °F 37.5 °F 30.23 in Calm     73% 0.00 in 0 W/m2
04:16 46.9 °F 38.0 °F 30.23 in East 1.0 mph 5.0 mph 71% 0.00 in 0 W/m2
04:22 48.0 °F 37.9 °F 30.24 in East 1.0 mph 6.0 mph 68% 0.00 in 0 W/m2
04:28 49.2 °F 38.3 °F 30.24 in SE 2.0 mph 6.0 mph 66% 0.00 in 0 W/m2
04:34 49.3 °F 38.0 °F 30.23 in ENE 2.0 mph 4.0 mph 65% 0.00 in 0 W/m2
04:40 49.5 °F 37.8 °F 30.23 in East 1.0 mph 2.0 mph 64% 0.00 in 0 W/m2
04:46 49.7 °F 38.0 °F 30.23 in ENE 1.0 mph 2.0 mph 64% 0.00 in 0 W/m2
04:52 49.6 °F 37.9 °F 30.24 in SE 1.0 mph 3.0 mph 64% 0.00 in 0 W/m2
04:58 50.2 °F 37.7 °F 30.23 in South 2.0 mph 5.0 mph 62% 0.00 in 0 W/m2
05:06 51.1 °F 37.3 °F 30.24 in SE 4.0 mph 5.0 mph 59% 0.00 in 0 W/m2
05:12 51.0 °F 37.6 °F 30.24 in SE 3.0 mph 4.0 mph 60% 0.00 in 0 W/m2
05:18 50.8 °F 37.0 °F 30.24 in SE 3.0 mph 13.0 mph 59% 0.00 in 0 W/m2
05:24 51.1 °F 36.8 °F 30.24 in ESE 4.0 mph 4.0 mph 58% 0.00 in 0 W/m2
05:30 51.5 °F 36.8 °F 30.23 in SSE 5.0 mph 9.0 mph 57% 0.00 in 0 W/m2
05:36 51.4 °F 36.2 °F 30.23 in SSE 5.0 mph 9.0 mph 56% 0.00 in 0 W/m2
05:42 51.4 °F 36.2 °F 30.22 in SSE 5.0 mph 8.0 mph 56% 0.00 in 0 W/m2
05:48 51.5 °F 36.3 °F 30.22 in South 7.0 mph 8.0 mph 56% 0.00 in 0 W/m2
05:54 51.4 °F 36.2 °F 30.23 in SSE 7.0 mph 11.0 mph 56% 0.00 in 0 W/m2
06:00 51.5 °F 35.9 °F 30.23 in South 6.0 mph 7.0 mph 55% 0.00 in 0 W/m2
06:06 51.4 °F 35.8 °F 30.23 in SSE 6.0 mph 7.0 mph 55% 0.00 in 0 W/m2
06:12 51.4 °F 35.3 °F 30.23 in SSE 6.0 mph 11.0 mph 54% 0.00 in 0 W/m2
06:18 51.4 °F 35.8 °F 30.23 in SSE 5.0 mph 11.0 mph 55% 0.00 in 0 W/m2
06:24 51.4 °F 35.8 °F 30.23 in SSE 7.0 mph 10.0 mph 55% 0.00 in 7 W/m2
06:30 51.4 °F 35.3 °F 30.23 in SSE 8.0 mph 12.0 mph 54% 0.00 in 12 W/m2
06:36 51.3 °F 34.7 °F 30.23 in South 8.0 mph 12.0 mph 53% 0.00 in 19 W/m2
06:42 51.3 °F 34.7 °F 30.23 in SE 8.0 mph 11.0 mph 53% 0.00 in 37 W/m2
06:48 51.2 °F 35.1 °F 30.23 in SSE 6.0 mph 11.0 mph 54% 0.00 in 40 W/m2
06:54 51.1 °F 34.5 °F 30.23 in SSE 6.0 mph 8.0 mph 53% 0.00 in 44 W/m2
07:00 51.0 °F 35.4 °F 30.23 in SSE 6.0 mph 6.0 mph 55% 0.00 in 49 W/m2
07:06 51.0 °F 34.9 °F 30.24 in South 5.0 mph 10.0 mph 54% 0.00 in 56 W/m2
07:12 51.0 °F 34.9 °F 30.24 in SE 8.0 mph 8.0 mph 54% 0.00 in 51 W/m2
07:18 50.8 °F 35.2 °F 30.23 in SSE 6.0 mph 8.0 mph 55% 0.00 in 40 W/m2
07:30 50.7 °F 34.6 °F 30.23 in SE 9.0 mph 9.0 mph 54% 0.00 in 40 W/m2
07:36 50.6 °F 34.6 °F 30.23 in South 9.0 mph 11.0 mph 54% 0.00 in 32 W/m2
07:42 50.5 °F 34.9 °F 30.23 in SSE 8.0 mph 8.0 mph 55% 0.00 in 33 W/m2
07:48 50.4 °F 35.3 °F 30.23 in South 6.0 mph 8.0 mph 56% 0.00 in 35 W/m2
07:54 50.4 °F 34.8 °F 30.23 in ESE 7.0 mph 10.0 mph 55% 0.00 in 46 W/m2
08:00 50.4 °F 34.8 °F 30.23 in South 7.0 mph 8.0 mph 55% 0.00 in 53 W/m2
08:06 50.4 °F 35.3 °F 30.22 in SSE 8.0 mph 9.0 mph 56% 0.00 in 69 W/m2
08:12 50.5 °F 35.4 °F 30.22 in South 6.0 mph 12.0 mph 56% 0.00 in 65 W/m2
08:18 50.4 °F 35.7 °F 30.21 in SSE 7.0 mph 13.0 mph 57% 0.00 in 76 W/m2
08:24 50.4 °F 35.7 °F 30.21 in SSE 7.0 mph 10.0 mph 57% 0.00 in 84 W/m2
08:30 50.5 °F 35.8 °F 30.21 in South 7.0 mph 9.0 mph 57% 0.00 in 72 W/m2
08:36 50.6 °F 36.4 °F 30.21 in South 8.0 mph 9.0 mph 58% 0.00 in 51 W/m2
08:42 50.5 °F 36.3 °F 30.21 in SSE 8.0 mph 8.0 mph 58% 0.00 in 74 W/m2
08:48 50.6 °F 36.4 °F 30.21 in SSE 8.0 mph 10.0 mph 58% 0.00 in 79 W/m2
08:54 50.7 °F 36.0 °F 30.21 in SE 8.0 mph 11.0 mph 57% 0.00 in 74 W/m2
09:00 50.6 °F 36.8 °F 30.20 in SSE 8.0 mph 9.0 mph 59% 0.00 in 98 W/m2
09:06 50.7 °F 36.9 °F 30.20 in SSE 7.0 mph 9.0 mph 59% 0.00 in 72 W/m2
09:12 50.7 °F 36.5 °F 30.19 in South 7.0 mph 7.0 mph 58% 0.00 in 76 W/m2
09:18 50.8 °F 37.4 °F 30.19 in South 7.0 mph 7.0 mph 60% 0.00 in 54 W/m2
09:24 50.8 °F 36.5 °F 30.19 in South 7.0 mph 10.0 mph 58% 0.00 in 56 W/m2
09:30 51.0 °F 36.7 °F 30.19 in South 8.0 mph 8.0 mph 58% 0.00 in 111 W/m2
09:36 51.1 °F 37.7 °F 30.18 in SE 7.0 mph 14.0 mph 60% 0.00 in 149 W/m2
09:42 51.4 °F 38.4 °F 30.18 in SE 7.0 mph 10.0 mph 61% 0.00 in 234 W/m2
09:48 52.2 °F 37.9 °F 30.18 in South 8.0 mph 10.0 mph 58% 0.00 in 364 W/m2
10:00 52.8 °F 37.5 °F 30.16 in SW 7.0 mph 12.0 mph 56% 0.00 in 211 W/m2
10:06 52.9 °F 38.1 °F 30.16 in South 9.0 mph 12.0 mph 57% 0.00 in 281 W/m2
10:12 53.4 °F 38.1 °F 30.16 in SE 8.0 mph 17.0 mph 56% 0.00 in 366 W/m2
10:18 53.9 °F 37.6 °F 30.16 in SSE 10.0 mph 17.0 mph 54% 0.00 in 339 W/m2
10:24 53.8 °F 37.5 °F 30.15 in SE 10.0 mph 11.0 mph 54% 0.00 in 216 W/m2
10:30 53.9 °F 37.6 °F 30.15 in SSE 9.0 mph 9.0 mph 54% 0.00 in 237 W/m2
10:42 54.4 °F 38.1 °F 30.15 in SSE 8.0 mph 11.0 mph 54% 0.00 in 290 W/m2
10:48 54.6 °F 37.8 °F 30.15 in SW 9.0 mph 13.0 mph 53% 0.00 in 257 W/m2
10:54 54.6 °F 37.8 °F 30.14 in South 10.0 mph 17.0 mph 53% 0.00 in 248 W/m2
11:00 55.0 °F 38.2 °F 30.13 in SE 9.0 mph 10.0 mph 53% 0.00 in 295 W/m2
11:06 55.4 °F 38.5 °F 30.13 in SSE 8.0 mph 10.0 mph 53% 0.00 in 236 W/m2
11:12 55.4 °F 39.0 °F 30.13 in South 7.0 mph 9.0 mph 54% 0.00 in 160 W/m2
11:18 55.0 °F 40.0 °F 30.13 in SSE 7.0 mph 9.0 mph 57% 0.00 in 146 W/m2
11:24 54.1 °F 40.9 °F 30.12 in South 7.0 mph 10.0 mph 61% 0.00 in 113 W/m2
11:30 53.7 °F 40.6 °F 30.13 in SE 6.0 mph 7.0 mph 61% 0.00 in 142 W/m2
11:36 53.8 °F 40.2 °F 30.13 in South 6.0 mph 7.0 mph 60% 0.00 in 98 W/m2
11:42 53.6 °F 40.9 °F 30.13 in SSE 6.0 mph 6.0 mph 62% 0.00 in 81 W/m2
11:48 52.9 °F 41.8 °F 30.14 in SSE 5.0 mph 7.0 mph 66% 0.00 in 58 W/m2
11:54 52.1 °F 41.9 °F 30.14 in SSE 5.0 mph 5.0 mph 68% 0.00 in 47 W/m2
12:00 51.8 °F 41.9 °F 30.14 in SE 5.0 mph 6.0 mph 69% 0.00 in 32 W/m2
12:06 51.7 °F 42.6 °F 30.14 in SSE 6.0 mph 7.0 mph 71% 0.12 in 28 W/m2
12:12 51.2 °F 42.8 °F 30.14 in South 4.0 mph 5.0 mph 73% 0.31 in 23 W/m2
12:18 50.6 °F 42.6 °F 30.14 in SSE 4.0 mph 10.0 mph 74% 0.23 in 33 W/m2
12:24 50.1 °F 43.2 °F 30.15 in SSE 4.0 mph 5.0 mph 77% 0.26 in 33 W/m2
12:30 49.6 °F 43.4 °F 30.15 in South 4.0 mph 4.0 mph 79% 0.22 in 32 W/m2
12:36 49.3 °F 43.7 °F 30.15 in SSE 4.0 mph 7.0 mph 81% 0.15 in 37 W/m2
12:42 49.0 °F 43.7 °F 30.15 in South 4.0 mph 6.0 mph 82% 0.34 in 39 W/m2
12:48 48.7 °F 44.1 °F 30.15 in SSE 4.0 mph 6.0 mph 84% 0.40 in 40 W/m2
12:54 48.5 °F 44.2 °F 30.14 in SE 4.0 mph 5.0 mph 85% 0.16 in 44 W/m2
13:00 48.5 °F 44.2 °F 30.13 in SE 5.0 mph 5.0 mph 85% 0.10 in 95 W/m2
13:06 48.5 °F 44.2 °F 30.13 in SE 5.0 mph 6.0 mph 85% 0.11 in 83 W/m2
13:12 48.5 °F 44.2 °F 30.13 in SSE 5.0 mph 7.0 mph 85% 0.06 in 102 W/m2
13:18 48.6 °F 44.3 °F 30.13 in SSE 5.0 mph 9.0 mph 85% 0.06 in 77 W/m2
13:24 48.5 °F 44.2 °F 30.12 in SSE 6.0 mph 6.0 mph 85% 0.05 in 63 W/m2
13:30 48.6 °F 44.0 °F 30.12 in SSE 6.0 mph 6.0 mph 84% 0.00 in 65 W/m2
13:36 48.6 °F 44.3 °F 30.12 in SSE 5.0 mph 6.0 mph 85% 0.00 in 49 W/m2
13:42 48.6 °F 44.3 °F 30.11 in SE 4.0 mph 11.0 mph 85% 0.00 in 81 W/m2
13:48 48.8 °F 44.2 °F 30.10 in ESE 6.0 mph 13.0 mph 84% 0.00 in 105 W/m2
14:00 49.0 °F 44.1 °F 30.10 in SSE 6.0 mph 9.0 mph 83% 0.04 in 98 W/m2
14:06 49.0 °F 44.4 °F 30.09 in SSE 6.0 mph 9.0 mph 84% 0.04 in 116 W/m2
14:18 49.3 °F 44.4 °F 30.09 in SE 6.0 mph 10.0 mph 83% 0.00 in 72 W/m2
14:24 49.5 °F 44.9 °F 30.09 in SSE 6.0 mph 6.0 mph 84% 0.00 in 111 W/m2
14:30 49.9 °F 44.9 °F 30.09 in South 5.0 mph 5.0 mph 83% 0.00 in 109 W/m2
14:36 50.1 °F 45.1 °F 30.08 in SSE 4.0 mph 5.0 mph 83% 0.00 in 88 W/m2
14:42 50.4 °F 45.1 °F 30.08 in SSE 4.0 mph 5.0 mph 82% 0.00 in 54 W/m2
14:48 50.7 °F 45.1 °F 30.07 in South 6.0 mph 8.0 mph 81% 0.00 in 130 W/m2
14:54 51.0 °F 45.0 °F 30.08 in SSE 6.0 mph 6.0 mph 80% 0.00 in 77 W/m2
15:00 51.0 °F 44.7 °F 30.07 in South 5.0 mph 5.0 mph 79% 0.00 in 46 W/m2
15:06 51.0 °F 44.7 °F 30.07 in South 5.0 mph 9.0 mph 79% 0.00 in 53 W/m2
15:12 51.0 °F 44.7 °F 30.07 in SSE 5.0 mph 5.0 mph 79% 0.00 in 70 W/m2
15:18 51.1 °F 44.8 °F 30.07 in South 5.0 mph 5.0 mph 79% 0.00 in 44 W/m2
15:24 51.1 °F 44.8 °F 30.06 in SE 5.0 mph 9.0 mph 79% 0.00 in 51 W/m2
15:30 51.0 °F 44.7 °F 30.05 in SSE 5.0 mph 5.0 mph 79% 0.00 in 51 W/m2
15:36 51.1 °F 45.1 °F 30.05 in SSW 5.0 mph 6.0 mph 80% 0.00 in 54 W/m2
15:42 51.0 °F 45.0 °F 30.04 in SSW 4.0 mph 5.0 mph 80% 0.00 in 32 W/m2
15:48 50.8 °F 45.2 °F 30.05 in SSE 5.0 mph 6.0 mph 81% 0.00 in 40 W/m2
15:54 50.8 °F 45.2 °F 30.05 in South 5.0 mph 5.0 mph 81% 0.00 in 46 W/m2
16:00 50.8 °F 45.5 °F 30.05 in SSW 4.0 mph 4.0 mph 82% 0.00 in 40 W/m2
16:06 50.9 °F 45.6 °F 30.05 in SSE 2.0 mph 6.0 mph 82% 0.00 in 39 W/m2
16:12 50.9 °F 45.6 °F 30.05 in SSE 3.0 mph 3.0 mph 82% 0.00 in 21 W/m2
16:18 50.8 °F 45.8 °F 30.05 in South 2.0 mph 5.0 mph 83% 0.00 in 28 W/m2
16:24 51.0 °F 45.7 °F 30.04 in SW 4.0 mph 6.0 mph 82% 0.00 in 35 W/m2
16:30 51.1 °F 45.8 °F 30.05 in SSE 5.0 mph 5.0 mph 82% 0.00 in 58 W/m2
16:42 51.2 °F 46.2 °F 30.04 in SSW 4.0 mph 4.0 mph 83% 0.06 in 56 W/m2
16:48 51.4 °F 46.1 °F 30.04 in SSE 5.0 mph 5.0 mph 82% 0.04 in 62 W/m2
16:54 51.4 °F 46.4 °F 30.04 in ESE 4.0 mph 8.0 mph 83% 0.00 in 51 W/m2
17:00 51.7 °F 46.4 °F 30.03 in SW 5.0 mph 5.0 mph 82% 0.00 in 63 W/m2
17:06 51.9 °F 46.3 °F 30.03 in SSW 5.0 mph 5.0 mph 81% 0.00 in 107 W/m2
17:12 52.2 °F 46.9 °F 30.03 in SSW 3.0 mph 7.0 mph 82% 0.00 in 86 W/m2
17:18 52.3 °F 46.6 °F 30.03 in SE 3.0 mph 7.0 mph 81% 0.00 in 40 W/m2
17:24 52.3 °F 46.6 °F 30.04 in SSW 3.0 mph 5.0 mph 81% 0.00 in 39 W/m2
17:30 52.4 °F 46.4 °F 30.03 in SW 4.0 mph 4.0 mph 80% 0.00 in 42 W/m2
17:36 52.6 °F 46.6 °F 30.03 in SSE 3.0 mph 4.0 mph 80% 0.00 in 37 W/m2
17:42 52.5 °F 46.5 °F 30.04 in SSE 3.0 mph 4.0 mph 80% 0.00 in 21 W/m2
17:48 52.8 °F 46.8 °F 30.04 in South 3.0 mph 7.0 mph 80% 0.00 in 23 W/m2
17:54 52.9 °F 46.9 °F 30.03 in SSW 4.0 mph 5.0 mph 80% 0.00 in 16 W/m2
18:00 53.1 °F 46.4 °F 30.03 in SW 5.0 mph 5.0 mph 78% 0.00 in 16 W/m2
18:06 53.2 °F 46.5 °F 30.03 in SSE 5.0 mph 6.0 mph 78% 0.00 in 30 W/m2
18:12 52.9 °F 46.9 °F 30.02 in SSE 2.0 mph 3.0 mph 80% 0.00 in 16 W/m2
18:18 52.6 °F 46.6 °F 30.02 in SSE 1.0 mph 3.0 mph 80% 0.00 in 12 W/m2
18:24 52.5 °F 46.5 °F 30.03 in SSE 2.0 mph 3.0 mph 80% 0.00 in 12 W/m2
18:30 52.4 °F 46.7 °F 30.03 in SSE 1.0 mph 2.0 mph 81% 0.00 in 9 W/m2
18:36 52.5 °F 46.5 °F 30.04 in SE 1.0 mph 2.0 mph 80% 0.00 in 5 W/m2
18:42 52.0 °F 47.0 °F 30.03 in SE 1.0 mph 2.0 mph 83% 0.63 in 5 W/m2
18:48 51.5 °F 47.1 °F 30.02 in SSE 1.0 mph 3.0 mph 85% 0.23 in 16 W/m2
18:54 51.2 °F 47.2 °F 30.02 in SSE 1.0 mph 1.0 mph 86% 0.23 in 0 W/m2
19:00 51.1 °F 47.4 °F 30.04 in Calm   2.0 mph 87% 0.43 in 5 W/m2
19:06 50.8 °F 47.4 °F 30.04 in ESE 1.0 mph 2.0 mph 88% 0.24 in 0 W/m2
19:12 50.6 °F 47.2 °F 30.04 in ESE 1.0 mph 1.0 mph 88% 2.17 in 5 W/m2
19:18 50.6 °F 47.5 °F 30.04 in Calm   1.0 mph 89% 0.26 in 5 W/m2
19:24 50.5 °F 47.4 °F 30.04 in Calm     89% 0.13 in 0 W/m2
19:30 50.4 °F 47.6 °F 30.04 in Calm     90% 0.06 in 0 W/m2
19:36 50.2 °F 47.4 °F 30.04 in Calm     90% 0.04 in 0 W/m2
19:42 50.1 °F 47.3 °F 30.04 in Calm     90% 0.00 in 0 W/m2
19:48 50.1 °F 47.6 °F 30.04 in ESE 1.0 mph 2.0 mph 91% 0.00 in 0 W/m2
19:54 50.1 °F 47.6 °F 30.04 in ESE 1.0 mph 1.0 mph 91% 0.00 in 0 W/m2
20:00 50.2 °F 47.7 °F 30.04 in Calm     91% 0.00 in 0 W/m2
20:06 50.1 °F 47.6 °F 30.05 in Calm     91% 0.00 in 0 W/m2
20:12 50.1 °F 47.6 °F 30.05 in Calm     91% 0.00 in 0 W/m2
20:18 50.2 °F 47.7 °F 30.05 in Calm   2.0 mph 91% 0.00 in 0 W/m2
20:24 50.2 °F 47.7 °F 30.05 in ESE 1.0 mph 3.0 mph 91% 0.00 in 0 W/m2
20:30 50.2 °F 47.7 °F 30.05 in ESE 1.0 mph 1.0 mph 91% 0.00 in 0 W/m2
20:36 50.3 °F 47.8 °F 30.05 in SSE 2.0 mph 5.0 mph 91% 0.00 in 0 W/m2
20:42 50.4 °F 47.9 °F 30.05 in SSE 2.0 mph 3.0 mph 91% 0.00 in 0 W/m2
20:48 50.5 °F 48.0 °F 30.05 in SSE 1.0 mph 3.0 mph 91% 0.00 in 0 W/m2
20:54 50.5 °F 48.0 °F 30.05 in SSE 1.0 mph 1.0 mph 91% 0.00 in 0 W/m2
21:00 50.5 °F 48.0 °F 30.05 in SSE 2.0 mph 4.0 mph 91% 0.00 in 0 W/m2
21:06 50.5 °F 48.0 °F 30.04 in South 2.0 mph 4.0 mph 91% 0.00 in 0 W/m2
21:12 50.5 °F 48.0 °F 30.05 in South 1.0 mph 2.0 mph 91% 0.00 in 0 W/m2
21:18 50.5 °F 48.0 °F 30.04 in SSE 1.0 mph 4.0 mph 91% 0.00 in 0 W/m2
21:24 50.4 °F 47.6 °F 30.04 in SSE 1.0 mph 1.0 mph 90% 0.00 in 0 W/m2
21:30 50.3 °F 47.5 °F 30.04 in Calm     90% 0.00 in 0 W/m2
21:36 50.2 °F 47.4 °F 30.04 in Calm     90% 0.00 in 0 W/m2
21:42 50.0 °F 47.5 °F 30.04 in Calm     91% 0.00 in 0 W/m2
21:48 50.0 °F 47.5 °F 30.04 in Calm     91% 0.00 in 0 W/m2
21:54 49.9 °F 47.4 °F 30.05 in Calm     91% 0.00 in 0 W/m2
22:00 49.8 °F 47.3 °F 30.05 in Calm     91% 0.00 in 0 W/m2
22:06 49.8 °F 47.3 °F 30.05 in Calm     91% 0.00 in 0 W/m2
22:12 49.8 °F 47.3 °F 30.05 in Calm     91% 0.00 in 0 W/m2
22:18 49.8 °F 47.3 °F 30.05 in Calm     91% 0.00 in 0 W/m2
22:30 49.8 °F 47.6 °F 30.06 in Calm     92% 0.00 in 0 W/m2
22:36 49.9 °F 47.7 °F 30.06 in Calm     92% 0.00 in 0 W/m2
22:42 49.9 °F 47.7 °F 30.06 in Calm     92% 0.00 in 0 W/m2
22:48 49.8 °F 47.6 °F 30.06 in Calm     92% 0.00 in 0 W/m2
23:00 49.9 °F 47.7 °F 30.06 in Calm     92% 0.00 in 0 W/m2
23:06 49.9 °F 47.7 °F 30.06 in Calm     92% 0.00 in 0 W/m2
23:12 49.9 °F 47.7 °F 30.06 in Calm     92% 0.00 in 0 W/m2
23:18 49.9 °F 47.7 °F 30.06 in Calm     92% 0.00 in 0 W/m2
23:24 49.9 °F 47.7 °F 30.06 in Calm     92% 0.00 in 0 W/m2
23:30 49.9 °F 47.7 °F 30.06 in Calm     92% 0.00 in 0 W/m2
23:36 49.9 °F 48.0 °F 30.06 in Calm     93% 0.00 in 0 W/m2
23:42 49.9 °F 48.0 °F 30.06 in Calm     93% 0.00 in 0 W/m2
23:48 49.9 °F 48.0 °F 30.07 in Calm     93% 0.00 in 0 W/m2
23:54 49.9 °F 48.0 °F 30.06 in Calm     93% 0.00 in 0 W/m2
Country Meadow, Clay, NY, USA
Compliments of Weather Underground - 2 mb